Greater Kankakee Airport Kankakee US
ICAO: KIKK
IATA: IKK
Category: Medium
Scheduled Services: No

Elevation: 630 ft
TransAlt. 18000 ft.

Airport Communications:
AWOS 3:111.6
CHICAGO CNTR:132.5
KANKAKEE RDO:122.2
CTAF/UNICOM:123

KIKK Zoom In..

If you have problems with the map follow the link
https://www.worldairports.se/pages/airport.php?
ICAO=KIKK

Runways:

(A) RW 04 length 5981 ft width 100 ft
ILS 108.70 / hdg 38

(B) RW 16 length 4398 ft width 75 ft
---- / hdg 161

(C) RW 22 length 5981 ft width 100 ft
---- / hdg 218

(D) RW 34 length 4398 ft width 75 ft
---- / hdg 341

Location; KIKK
Day. 27 / Time. 04.55 Zulu
* Altimeter: 29.94
* Temperature: -02° c. -28.4°f.
* Wind from: 300° Speed 11 kn with Gusts up to 14 kn.
Dewpoint: -04° c.
Visibility: 10 Statute Miles.
Clouds: Overcast 1100 ft.

KIKK 270455Z AUTO 30011G14KT 10SM OVC011 M02/M04 A2994 RMK AO2 T10171040


Wind From 300°
Speed 11 kn.

 
 
jpsmedia worldairports.se 2020   terms of use